sensor_id;sensor_type;location;lat;lon;timestamp;pressure;altitude;pressure_sealevel;temperature;humidity
11830;BME280;5972;42.134;24.718;2023-01-25T00:02:11;101179.38;;;2.75;100.00
11830;BME280;5972;42.134;24.718;2023-01-25T00:04:37;101191.94;;;2.74;100.00
11830;BME280;5972;42.134;24.718;2023-01-25T00:07:04;101190.59;;;2.72;100.00
11830;BME280;5972;42.134;24.718;2023-01-25T00:09:31;101189.03;;;2.54;100.00
11830;BME280;5972;42.134;24.718;2023-01-25T00:11:58;101200.97;;;2.68;100.00
11830;BME280;5972;42.134;24.718;2023-01-25T00:14:25;101171.56;;;2.46;100.00
11830;BME280;5972;42.134;24.718;2023-01-25T00:16:53;101203.28;;;2.60;100.00
11830;BME280;5972;42.134;24.718;2023-01-25T00:19:20;101199.22;;;2.57;100.00
11830;BME280;5972;42.134;24.718;2023-01-25T00:21:46;101199.16;;;2.52;100.00
11830;BME280;5972;42.134;24.718;2023-01-25T00:24:14;101191.78;;;2.59;100.00
11830;BME280;5972;42.134;24.718;2023-01-25T00:26:41;101162.69;;;2.41;100.00
11830;BME280;5972;42.134;24.718;2023-01-25T00:29:12;101199.03;;;2.64;100.00
11830;BME280;5972;42.134;24.718;2023-01-25T00:31:57;101191.34;;;2.67;100.00
11830;BME280;5972;42.134;24.718;2023-01-25T00:34:42;101180.59;;;2.40;100.00
11830;BME280;5972;42.134;24.718;2023-01-25T00:37:23;101198.16;;;2.58;100.00
11830;BME280;5972;42.134;24.718;2023-01-25T00:39:50;101165.25;;;2.31;100.00
11830;BME280;5972;42.134;24.718;2023-01-25T00:42:19;101202.53;;;2.64;100.00
11830;BME280;5972;42.134;24.718;2023-01-25T00:44:47;101206.44;;;2.57;100.00
11830;BME280;5972;42.134;24.718;2023-01-25T00:47:15;101201.19;;;2.62;100.00
11830;BME280;5972;42.134;24.718;2023-01-25T00:49:43;101204.72;;;2.67;100.00
11830;BME280;5972;42.134;24.718;2023-01-25T00:52:10;101185.44;;;2.65;100.00
11830;BME280;5972;42.134;24.718;2023-01-25T00:54:37;101201.28;;;2.72;100.00
11830;BME280;5972;42.134;24.718;2023-01-25T00:57:05;101185.13;;;2.62;100.00
11830;BME280;5972;42.134;24.718;2023-01-25T00:59:32;101201.22;;;2.67;100.00
11830;BME280;5972;42.134;24.718;2023-01-25T01:01:59;101205.75;;;2.66;100.00
11830;BME280;5972;42.134;24.718;2023-01-25T01:04:27;101197.56;;;2.73;100.00
11830;BME280;5972;42.134;24.718;2023-01-25T01:06:54;101194.59;;;2.74;100.00
11830;BME280;5972;42.134;24.718;2023-01-25T01:09:22;101190.31;;;2.73;100.00
11830;BME280;5972;42.134;24.718;2023-01-25T01:11:49;101198.03;;;2.70;100.00
11830;BME280;5972;42.134;24.718;2023-01-25T01:14:16;101193.69;;;2.64;100.00
11830;BME280;5972;42.134;24.718;2023-01-25T01:16:43;101172.16;;;2.48;100.00
11830;BME280;5972;42.134;24.718;2023-01-25T01:19:09;101192.06;;;2.63;100.00
11830;BME280;5972;42.134;24.718;2023-01-25T01:21:37;101150.97;;;2.42;100.00
11830;BME280;5972;42.134;24.718;2023-01-25T01:24:05;101164.19;;;2.54;100.00
11830;BME280;5972;42.134;24.718;2023-01-25T01:26:32;101177.13;;;2.62;100.00
11830;BME280;5972;42.134;24.718;2023-01-25T01:28:59;101168.53;;;2.60;100.00
11830;BME280;5972;42.134;24.718;2023-01-25T01:31:26;101169.84;;;2.57;100.00
11830;BME280;5972;42.134;24.718;2023-01-25T01:33:54;101170.53;;;2.47;100.00
11830;BME280;5972;42.134;24.718;2023-01-25T01:36:25;101176.13;;;2.46;100.00
11830;BME280;5972;42.134;24.718;2023-01-25T01:38:54;101173.50;;;2.51;100.00
11830;BME280;5972;42.134;24.718;2023-01-25T01:41:21;101170.59;;;2.53;100.00
11830;BME280;5972;42.134;24.718;2023-01-25T01:43:49;101168.16;;;2.51;100.00
11830;BME280;5972;42.134;24.718;2023-01-25T01:46:21;101173.81;;;2.55;100.00
11830;BME280;5972;42.134;24.718;2023-01-25T01:48:52;101169.38;;;2.38;100.00
11830;BME280;5972;42.134;24.718;2023-01-25T01:51:23;101156.06;;;2.22;100.00
11830;BME280;5972;42.134;24.718;2023-01-25T01:53:56;101149.16;;;2.26;100.00
11830;BME280;5972;42.134;24.718;2023-01-25T01:56:30;101129.44;;;2.05;100.00
11830;BME280;5972;42.134;24.718;2023-01-25T01:59:00;101167.50;;;2.39;100.00
11830;BME280;5972;42.134;24.718;2023-01-25T02:01:28;101163.69;;;2.35;100.00
11830;BME280;5972;42.134;24.718;2023-01-25T02:03:55;101136.00;;;2.19;100.00
11830;BME280;5972;42.134;24.718;2023-01-25T02:06:30;101160.59;;;2.43;100.00
11830;BME280;5972;42.134;24.718;2023-01-25T02:09:00;101167.56;;;2.44;100.00
11830;BME280;5972;42.134;24.718;2023-01-25T02:11:28;101167.56;;;2.44;100.00
11830;BME280;5972;42.134;24.718;2023-01-25T02:13:57;101163.44;;;2.36;100.00
11830;BME280;5972;42.134;24.718;2023-01-25T02:16:26;101161.66;;;2.42;100.00
11830;BME280;5972;42.134;24.718;2023-01-25T02:18:55;101150.78;;;2.48;100.00
11830;BME280;5972;42.134;24.718;2023-01-25T02:21:31;101156.31;;;2.42;100.00
11830;BME280;5972;42.134;24.718;2023-01-25T02:24:06;101121.81;;;2.40;100.00
11830;BME280;5972;42.134;24.718;2023-01-25T02:26:36;101157.66;;;2.66;100.00
11830;BME280;5972;42.134;24.718;2023-01-25T02:29:05;101153.13;;;2.67;100.00
11830;BME280;5972;42.134;24.718;2023-01-25T02:31:32;101172.56;;;2.62;100.00
11830;BME280;5972;42.134;24.718;2023-01-25T02:33:59;101157.03;;;2.59;100.00
11830;BME280;5972;42.134;24.718;2023-01-25T02:36:28;101160.00;;;2.63;100.00
11830;BME280;5972;42.134;24.718;2023-01-25T02:38:58;101157.59;;;2.61;100.00
11830;BME280;5972;42.134;24.718;2023-01-25T02:41:31;101153.75;;;2.52;100.00
11830;BME280;5972;42.134;24.718;2023-01-25T02:44:01;101132.03;;;2.43;100.00
11830;BME280;5972;42.134;24.718;2023-01-25T02:46:30;101157.91;;;2.65;100.00
11830;BME280;5972;42.134;24.718;2023-01-25T02:48:59;101155.75;;;2.62;100.00
11830;BME280;5972;42.134;24.718;2023-01-25T02:51:30;101152.50;;;2.60;100.00
11830;BME280;5972;42.134;24.718;2023-01-25T02:53:57;101114.81;;;2.34;100.00
11830;BME280;5972;42.134;24.718;2023-01-25T02:56:25;101147.44;;;2.63;100.00
11830;BME280;5972;42.134;24.718;2023-01-25T02:58:52;101157.91;;;2.65;100.00
11830;BME280;5972;42.134;24.718;2023-01-25T03:01:20;101133.88;;;2.43;100.00
11830;BME280;5972;42.134;24.718;2023-01-25T03:03:47;101157.91;;;2.65;100.00
11830;BME280;5972;42.134;24.718;2023-01-25T03:06:14;101161.47;;;2.75;100.00
11830;BME280;5972;42.134;24.718;2023-01-25T03:08:41;101128.03;;;2.46;100.00
11830;BME280;5972;42.134;24.718;2023-01-25T03:11:08;101166.59;;;2.77;100.00
11830;BME280;5972;42.134;24.718;2023-01-25T03:13:35;101157.13;;;2.69;100.00
11830;BME280;5972;42.134;24.718;2023-01-25T03:16:04;101163.97;;;2.82;100.00
11830;BME280;5972;42.134;24.718;2023-01-25T03:18:33;101134.41;;;2.67;100.00
11830;BME280;5972;42.134;24.718;2023-01-25T03:21:04;101163.50;;;2.90;100.00
11830;BME280;5972;42.134;24.718;2023-01-25T03:23:34;101156.22;;;2.85;100.00
11830;BME280;5972;42.134;24.718;2023-01-25T03:26:06;101153.22;;;2.77;100.00
11830;BME280;5972;42.134;24.718;2023-01-25T03:28:33;101156.44;;;2.79;100.00
11830;BME280;5972;42.134;24.718;2023-01-25T03:31:00;101131.69;;;2.62;100.00
11830;BME280;5972;42.134;24.718;2023-01-25T03:33:28;101111.75;;;2.47;100.00
11830;BME280;5972;42.134;24.718;2023-01-25T03:35:56;101155.31;;;2.75;100.00
11830;BME280;5972;42.134;24.718;2023-01-25T03:38:23;101147.97;;;2.60;100.00
11830;BME280;5972;42.134;24.718;2023-01-25T03:40:50;101163.53;;;2.68;100.00
11830;BME280;5972;42.134;24.718;2023-01-25T03:43:17;101160.13;;;2.73;100.00
11830;BME280;5972;42.134;24.718;2023-01-25T03:45:44;101150.69;;;2.65;100.00
11830;BME280;5972;42.134;24.718;2023-01-25T03:48:11;101162.72;;;2.68;100.00
11830;BME280;5972;42.134;24.718;2023-01-25T03:50:38;101159.81;;;2.69;100.00
11830;BME280;5972;42.134;24.718;2023-01-25T03:53:09;101163.47;;;2.63;100.00
11830;BME280;5972;42.134;24.718;2023-01-25T03:55:52;101170.22;;;2.66;100.00
11830;BME280;5972;42.134;24.718;2023-01-25T03:58:19;101125.91;;;2.48;100.00
11830;BME280;5972;42.134;24.718;2023-01-25T04:00:46;101169.16;;;2.67;100.00
11830;BME280;5972;42.134;24.718;2023-01-25T04:03:12;101166.09;;;2.58;100.00
11830;BME280;5972;42.134;24.718;2023-01-25T04:05:42;101171.50;;;2.63;100.00
11830;BME280;5972;42.134;24.718;2023-01-25T04:08:10;101177.41;;;2.65;100.00
11830;BME280;5972;42.134;24.718;2023-01-25T04:10:37;101176.31;;;2.61;100.00
11830;BME280;5972;42.134;24.718;2023-01-25T04:13:04;101166.09;;;2.58;100.00
11830;BME280;5972;42.134;24.718;2023-01-25T04:15:31;101165.44;;;2.46;100.00
11830;BME280;5972;42.134;24.718;2023-01-25T04:17:57;101171.16;;;2.55;100.00
11830;BME280;5972;42.134;24.718;2023-01-25T04:20:24;101180.47;;;2.52;100.00
11830;BME280;5972;42.134;24.718;2023-01-25T04:22:54;101175.94;;;2.53;100.00
11830;BME280;5972;42.134;24.718;2023-01-25T04:25:22;101178.94;;;2.56;100.00
11830;BME280;5972;42.134;24.718;2023-01-25T04:27:49;101171.63;;;2.51;100.00
11830;BME280;5972;42.134;24.718;2023-01-25T04:30:16;101168.47;;;2.55;100.00
11830;BME280;5972;42.134;24.718;2023-01-25T04:32:43;101174.81;;;2.48;100.00
11830;BME280;5972;42.134;24.718;2023-01-25T04:35:10;101173.59;;;2.56;100.00
11830;BME280;5972;42.134;24.718;2023-01-25T04:37:37;101185.00;;;2.51;100.00
11830;BME280;5972;42.134;24.718;2023-01-25T04:40:05;101183.94;;;2.53;100.00
11830;BME280;5972;42.134;24.718;2023-01-25T04:42:34;101166.94;;;2.37;100.00
11830;BME280;5972;42.134;24.718;2023-01-25T04:45:01;101200.50;;;2.49;100.00
11830;BME280;5972;42.134;24.718;2023-01-25T04:47:28;101149.22;;;2.31;100.00
11830;BME280;5972;42.134;24.718;2023-01-25T04:49:54;101167.84;;;2.47;100.00
11830;BME280;5972;42.134;24.718;2023-01-25T04:52:23;101184.75;;;2.53;100.00
11830;BME280;5972;42.134;24.718;2023-01-25T04:54:50;101185.81;;;2.52;100.00
11830;BME280;5972;42.134;24.718;2023-01-25T04:57:17;101179.34;;;2.48;100.00
11830;BME280;5972;42.134;24.718;2023-01-25T04:59:45;101166.19;;;2.20;100.00
11830;BME280;5972;42.134;24.718;2023-01-25T05:02:12;101161.28;;;2.33;100.00
11830;BME280;5972;42.134;24.718;2023-01-25T05:04:39;101173.44;;;2.46;100.00
11830;BME280;5972;42.134;24.718;2023-01-25T05:07:05;101170.72;;;2.41;100.00
11830;BME280;5972;42.134;24.718;2023-01-25T05:09:32;101175.41;;;2.50;100.00
11830;BME280;5972;42.134;24.718;2023-01-25T05:11:59;101165.13;;;2.42;100.00
11830;BME280;5972;42.134;24.718;2023-01-25T05:14:26;101180.41;;;2.47;100.00
11830;BME280;5972;42.134;24.718;2023-01-25T05:16:56;101191.78;;;2.37;100.00
11830;BME280;5972;42.134;24.718;2023-01-25T05:19:23;101188.38;;;2.42;100.00
11830;BME280;5972;42.134;24.718;2023-01-25T05:21:50;101172.22;;;2.32;100.00
11830;BME280;5972;42.134;24.718;2023-01-25T05:24:26;101158.09;;;2.36;100.00
11830;BME280;5972;42.134;24.718;2023-01-25T05:26:53;101195.50;;;2.36;100.00
11830;BME280;5972;42.134;24.718;2023-01-25T05:29:26;101196.50;;;2.30;100.00
11830;BME280;5972;42.134;24.718;2023-01-25T05:31:53;101197.19;;;2.42;100.00
11830;BME280;5972;42.134;24.718;2023-01-25T05:34:21;101200.91;;;2.41;100.00
11830;BME280;5972;42.134;24.718;2023-01-25T05:36:48;101180.06;;;2.38;100.00
11830;BME280;5972;42.134;24.718;2023-01-25T05:39:15;101161.84;;;2.14;100.00
11830;BME280;5972;42.134;24.718;2023-01-25T05:41:41;101203.09;;;2.44;100.00
11830;BME280;5972;42.134;24.718;2023-01-25T05:44:09;101206.06;;;2.48;100.00
11830;BME280;5972;42.134;24.718;2023-01-25T05:46:36;101201.03;;;2.51;100.00
11830;BME280;5972;42.134;24.718;2023-01-25T05:49:03;101215.13;;;2.47;100.00
11830;BME280;5972;42.134;24.718;2023-01-25T05:51:33;101200.78;;;2.31;100.00
11830;BME280;5972;42.134;24.718;2023-01-25T05:54:01;101207.00;;;2.37;100.00
11830;BME280;5972;42.134;24.718;2023-01-25T05:56:28;101206.44;;;2.35;100.00
11830;BME280;5972;42.134;24.718;2023-01-25T05:58:56;101217.28;;;2.45;100.00
11830;BME280;5972;42.134;24.718;2023-01-25T06:01:24;101214.59;;;2.45;100.00
11830;BME280;5972;42.134;24.718;2023-01-25T06:03:51;101211.66;;;2.46;100.00
11830;BME280;5972;42.134;24.718;2023-01-25T06:06:19;101189.59;;;2.34;100.00
11830;BME280;5972;42.134;24.718;2023-01-25T06:08:50;101200.03;;;2.36;100.00
11830;BME280;5972;42.134;24.718;2023-01-25T06:11:20;101207.56;;;2.39;100.00
11830;BME280;5972;42.134;24.718;2023-01-25T06:13:48;101209.25;;;2.45;100.00
11830;BME280;5972;42.134;24.718;2023-01-25T06:16:17;101192.53;;;2.33;100.00
11830;BME280;5972;42.134;24.718;2023-01-25T06:18:45;101227.19;;;2.28;100.00
11830;BME280;5972;42.134;24.718;2023-01-25T06:21:12;101218.00;;;2.40;100.00
11830;BME280;5972;42.134;24.718;2023-01-25T06:23:42;101206.19;;;2.36;100.00
11830;BME280;5972;42.134;24.718;2023-01-25T06:26:12;101215.06;;;2.42;100.00
11830;BME280;5972;42.134;24.718;2023-01-25T06:28:39;101213.97;;;2.38;100.00
11830;BME280;5972;42.134;24.718;2023-01-25T06:31:07;101217.06;;;2.51;100.00
11830;BME280;5972;42.134;24.718;2023-01-25T06:33:35;101217.06;;;2.51;100.00
11830;BME280;5972;42.134;24.718;2023-01-25T06:36:04;101222.22;;;2.58;100.00
11830;BME280;5972;42.134;24.718;2023-01-25T06:38:31;101224.13;;;2.63;100.00
11830;BME280;5972;42.134;24.718;2023-01-25T06:40:59;101222.78;;;2.60;100.00
11830;BME280;5972;42.134;24.718;2023-01-25T06:43:28;101221.47;;;2.63;100.00
11830;BME280;5972;42.134;24.718;2023-01-25T06:45:58;101222.56;;;2.62;100.00
11830;BME280;5972;42.134;24.718;2023-01-25T06:48:26;101217.13;;;2.57;100.00
11830;BME280;5972;42.134;24.718;2023-01-25T06:50:55;101215.06;;;2.64;100.00
11830;BME280;5972;42.134;24.718;2023-01-25T06:53:24;101219.56;;;2.58;100.00
11830;BME280;5972;42.134;24.718;2023-01-25T06:55:57;101194.53;;;2.42;100.00
11830;BME280;5972;42.134;24.718;2023-01-25T06:58:24;101179.41;;;2.31;100.00
11830;BME280;5972;42.134;24.718;2023-01-25T07:00:53;101223.84;;;2.59;100.00
11830;BME280;5972;42.134;24.718;2023-01-25T07:03:20;101211.88;;;2.62;100.00
11830;BME280;5972;42.134;24.718;2023-01-25T07:05:46;101215.06;;;2.64;100.00
11830;BME280;5972;42.134;24.718;2023-01-25T07:08:15;101215.56;;;2.82;100.00
11830;BME280;5972;42.134;24.718;2023-01-25T07:10:42;101215.94;;;2.69;100.00
11830;BME280;5972;42.134;24.718;2023-01-25T07:13:09;101220.13;;;2.60;100.00
11830;BME280;5972;42.134;24.718;2023-01-25T07:15:36;101221.41;;;2.58;100.00
11830;BME280;5972;42.134;24.718;2023-01-25T07:18:04;101229.31;;;2.69;100.00
11830;BME280;5972;42.134;24.718;2023-01-25T07:20:31;101212.34;;;2.59;100.00
11830;BME280;5972;42.134;24.718;2023-01-25T07:23:00;101205.72;;;2.61;100.00
11830;BME280;5972;42.134;24.718;2023-01-25T07:25:27;101226.88;;;2.68;100.00
11830;BME280;5972;42.134;24.718;2023-01-25T07:27:54;101229.63;;;2.73;100.00
11830;BME280;5972;42.134;24.718;2023-01-25T07:30:20;101231.34;;;2.62;100.00
11830;BME280;5972;42.134;24.718;2023-01-25T07:32:50;101234.66;;;2.69;100.00
11830;BME280;5972;42.134;24.718;2023-01-25T07:35:18;101241.66;;;2.75;100.00
11830;BME280;5972;42.134;24.718;2023-01-25T07:37:44;101222.09;;;2.70;100.00
11830;BME280;5972;42.134;24.718;2023-01-25T07:40:11;101207.41;;;2.29;100.00
11830;BME280;5972;42.134;24.718;2023-01-25T07:42:39;101248.25;;;2.46;100.00
11830;BME280;5972;42.134;24.718;2023-01-25T07:45:10;101212.16;;;2.43;100.00
11830;BME280;5972;42.134;24.718;2023-01-25T07:47:37;101236.69;;;2.62;100.00
11830;BME280;5972;42.134;24.718;2023-01-25T07:50:06;101234.78;;;2.58;100.00
11830;BME280;5972;42.134;24.718;2023-01-25T07:52:34;101214.38;;;2.51;100.00
11830;BME280;5972;42.134;24.718;2023-01-25T07:55:01;101214.72;;;2.55;100.00
11830;BME280;5972;42.134;24.718;2023-01-25T07:57:30;101231.88;;;2.59;100.00
11830;BME280;5972;42.134;24.718;2023-01-25T07:59:59;101246.72;;;2.72;100.00
11830;BME280;5972;42.134;24.718;2023-01-25T08:02:26;101251.31;;;2.76;100.00
11830;BME280;5972;42.134;24.718;2023-01-25T08:04:53;101232.31;;;2.73;100.00
11830;BME280;5972;42.134;24.718;2023-01-25T08:07:19;101235.69;;;2.68;100.00
11830;BME280;5972;42.134;24.718;2023-01-25T08:09:49;101257.66;;;2.70;100.00
11830;BME280;5972;42.134;24.718;2023-01-25T08:12:16;101255.03;;;2.75;100.00
11830;BME280;5972;42.134;24.718;2023-01-25T08:14:43;101230.94;;;2.48;100.00
11830;BME280;5972;42.134;24.718;2023-01-25T08:17:10;101251.25;;;2.71;100.00
11830;BME280;5972;42.134;24.718;2023-01-25T08:19:37;101253.75;;;2.78;100.00
11830;BME280;5972;42.134;24.718;2023-01-25T08:22:06;101251.13;;;2.61;100.00
11830;BME280;5972;42.134;24.718;2023-01-25T08:24:33;101253.41;;;2.74;100.00
11830;BME280;5972;42.134;24.718;2023-01-25T08:27:09;101255.50;;;2.67;100.00
11830;BME280;5972;42.134;24.718;2023-01-25T08:29:44;101255.84;;;2.54;100.00
11830;BME280;5972;42.134;24.718;2023-01-25T08:32:12;101250.38;;;2.66;100.00
11830;BME280;5972;42.134;24.718;2023-01-25T08:34:41;101248.94;;;2.80;100.00
11830;BME280;5972;42.134;24.718;2023-01-25T08:37:08;101261.94;;;2.71;100.00
11830;BME280;5972;42.134;24.718;2023-01-25T08:39:35;101248.25;;;2.89;100.00
11830;BME280;5972;42.134;24.718;2023-01-25T08:42:03;101248.09;;;3.01;100.00
11830;BME280;5972;42.134;24.718;2023-01-25T08:44:31;101244.03;;;2.93;100.00
11830;BME280;5972;42.134;24.718;2023-01-25T08:46:57;101255.13;;;3.07;100.00
11830;BME280;5972;42.134;24.718;2023-01-25T08:49:24;101247.03;;;3.02;100.00
11830;BME280;5972;42.134;24.718;2023-01-25T08:51:52;101234.56;;;2.86;100.00
11830;BME280;5972;42.134;24.718;2023-01-25T08:54:18;101230.28;;;2.85;100.00
11830;BME280;5972;42.134;24.718;2023-01-25T08:56:47;101237.31;;;2.91;100.00
11830;BME280;5972;42.134;24.718;2023-01-25T08:59:23;101253.34;;;2.91;100.00
11830;BME280;5972;42.134;24.718;2023-01-25T09:01:49;101245.03;;;2.87;100.00
11830;BME280;5972;42.134;24.718;2023-01-25T09:04:16;101214.94;;;2.75;100.00
11830;BME280;5972;42.134;24.718;2023-01-25T09:06:43;101220.44;;;2.90;100.00
11830;BME280;5972;42.134;24.718;2023-01-25T09:09:24;101228.09;;;3.04;100.00
11830;BME280;5972;42.134;24.718;2023-01-25T09:12:05;101215.66;;;2.92;100.00
11830;BME280;5972;42.134;24.718;2023-01-25T09:14:33;101216.34;;;3.05;100.00
11830;BME280;5972;42.134;24.718;2023-01-25T09:17:01;101189.03;;;2.76;100.00
11830;BME280;5972;42.134;24.718;2023-01-25T09:19:28;101213.19;;;3.13;100.00
11830;BME280;5972;42.134;24.718;2023-01-25T09:21:54;101212.66;;;3.11;100.00
11830;BME280;5972;42.134;24.718;2023-01-25T09:24:21;101223.94;;;3.18;100.00
11830;BME280;5972;42.134;24.718;2023-01-25T09:26:48;101220.97;;;3.14;100.00
11830;BME280;5972;42.134;24.718;2023-01-25T09:29:15;101217.63;;;3.02;100.00
11830;BME280;5972;42.134;24.718;2023-01-25T09:31:43;101218.97;;;3.00;100.00
11830;BME280;5972;42.134;24.718;2023-01-25T09:34:10;101187.97;;;2.77;100.00
11830;BME280;5972;42.134;24.718;2023-01-25T09:36:38;101199.69;;;2.98;100.00
11830;BME280;5972;42.134;24.718;2023-01-25T09:39:05;101194.56;;;2.96;100.00
11830;BME280;5972;42.134;24.718;2023-01-25T09:42:02;101171.31;;;2.97;100.00
11830;BME280;5972;42.134;24.718;2023-01-25T09:44:50;101156.59;;;2.94;100.00
11830;BME280;5972;42.134;24.718;2023-01-25T09:47:28;101170.16;;;3.14;100.00
11830;BME280;5972;42.134;24.718;2023-01-25T09:50:10;101147.44;;;2.90;100.00
11830;BME280;5972;42.134;24.718;2023-01-25T09:53:15;101154.06;;;3.09;100.00
11830;BME280;5972;42.134;24.718;2023-01-25T09:55:48;101145.84;;;3.16;100.00
11830;BME280;5972;42.134;24.718;2023-01-25T09:58:20;101175.16;;;3.38;100.00
11830;BME280;5972;42.134;24.718;2023-01-25T10:01:04;101159.88;;;3.33;100.00
11830;BME280;5972;42.134;24.718;2023-01-25T10:03:40;101148.22;;;3.49;100.00
11830;BME280;5972;42.134;24.718;2023-01-25T10:06:11;101153.59;;;3.17;100.00
11830;BME280;5972;42.134;24.718;2023-01-25T10:08:46;101149.69;;;3.30;100.00
11830;BME280;5972;42.134;24.718;2023-01-25T10:11:20;101155.44;;;3.49;100.00
11830;BME280;5972;42.134;24.718;2023-01-25T10:13:59;101150.88;;;3.44;100.00
11830;BME280;5972;42.134;24.718;2023-01-25T10:16:30;101069.03;;;3.11;100.00
11830;BME280;5972;42.134;24.718;2023-01-25T10:19:09;101142.31;;;3.47;100.00
11830;BME280;5972;42.134;24.718;2023-01-25T10:21:41;101138.00;;;3.41;100.00
11830;BME280;5972;42.134;24.718;2023-01-25T10:27:17;101134.47;;;3.35;100.00
11830;BME280;5972;42.134;24.718;2023-01-25T10:29:47;101129.34;;;3.29;100.00
11830;BME280;5972;42.134;24.718;2023-01-25T10:32:18;101117.03;;;3.28;100.00
11830;BME280;5972;42.134;24.718;2023-01-25T10:34:54;101108.06;;;3.12;100.00
11830;BME280;5972;42.134;24.718;2023-01-25T10:37:26;101089.66;;;3.16;100.00
11830;BME280;5972;42.134;24.718;2023-01-25T10:39:57;101112.44;;;3.23;100.00
11830;BME280;5972;42.134;24.718;2023-01-25T10:42:29;101107.66;;;3.25;100.00
11830;BME280;5972;42.134;24.718;2023-01-25T10:45:00;101105.03;;;3.35;100.00
11830;BME280;5972;42.134;24.718;2023-01-25T10:47:31;101097.31;;;3.39;100.00
11830;BME280;5972;42.134;24.718;2023-01-25T10:50:02;101068.78;;;3.18;100.00
11830;BME280;5972;42.134;24.718;2023-01-25T10:52:30;101079.31;;;3.29;100.00
11830;BME280;5972;42.134;24.718;2023-01-25T10:55:13;101082.56;;;3.31;100.00
11830;BME280;5972;42.134;24.718;2023-01-25T10:57:42;101080.16;;;3.35;100.00
11830;BME280;5972;42.134;24.718;2023-01-25T11:00:21;101087.66;;;3.33;100.00
11830;BME280;5972;42.134;24.718;2023-01-25T11:02:49;101069.22;;;3.42;100.00
11830;BME280;5972;42.134;24.718;2023-01-25T11:05:34;101085.16;;;3.63;100.00
11830;BME280;5972;42.134;24.718;2023-01-25T11:08:21;101080.09;;;3.67;100.00
11830;BME280;5972;42.134;24.718;2023-01-25T11:10:50;101075.28;;;3.74;100.00
11830;BME280;5972;42.134;24.718;2023-01-25T11:13:20;101077.94;;;3.64;100.00
11830;BME280;5972;42.134;24.718;2023-01-25T11:16:09;101061.41;;;3.77;100.00
11830;BME280;5972;42.134;24.718;2023-01-25T11:19:24;101062.81;;;3.90;100.00
11830;BME280;5972;42.134;24.718;2023-01-25T11:22:22;101058.31;;;4.05;100.00
11830;BME280;5972;42.134;24.718;2023-01-25T11:25:01;101040.59;;;3.99;100.00
11830;BME280;5972;42.134;24.718;2023-01-25T11:27:48;101031.41;;;3.75;100.00
11830;BME280;5972;42.134;24.718;2023-01-25T11:30:32;101022.31;;;3.76;100.00
11830;BME280;5972;42.134;24.718;2023-01-25T11:33:19;101038.13;;;3.83;100.00
11830;BME280;5972;42.134;24.718;2023-01-25T11:36:22;101042.97;;;3.91;100.00
11830;BME280;5972;42.134;24.718;2023-01-25T11:39:23;100974.28;;;3.44;100.00
11830;BME280;5972;42.134;24.718;2023-01-25T11:42:14;101021.47;;;3.70;100.00
11830;BME280;5972;42.134;24.718;2023-01-25T11:48:11;101008.88;;;3.61;100.00
11830;BME280;5972;42.134;24.718;2023-01-25T11:51:02;101018.25;;;3.68;100.00
11830;BME280;5972;42.134;24.718;2023-01-25T11:54:08;101015.91;;;3.77;100.00
11830;BME280;5972;42.134;24.718;2023-01-25T11:57:01;101023.09;;;3.71;100.00
11830;BME280;5972;42.134;24.718;2023-01-25T12:00:03;101009.69;;;3.66;100.00
11830;BME280;5972;42.134;24.718;2023-01-25T12:05:59;100996.09;;;3.78;100.00
11830;BME280;5972;42.134;24.718;2023-01-25T12:08:54;100999.06;;;3.92;100.00
11830;BME280;5972;42.134;24.718;2023-01-25T12:11:51;100990.72;;;3.73;100.00
11830;BME280;5972;42.134;24.718;2023-01-25T12:14:56;100993.44;;;3.93;100.00
11830;BME280;5972;42.134;24.718;2023-01-25T12:17:48;100983.81;;;3.97;100.00
11830;BME280;5972;42.134;24.718;2023-01-25T12:20:48;100942.53;;;3.73;100.00
11830;BME280;5972;42.134;24.718;2023-01-25T12:23:52;100965.84;;;3.78;100.00
11830;BME280;5972;42.134;24.718;2023-01-25T12:26:37;100962.31;;;3.67;100.00
11830;BME280;5972;42.134;24.718;2023-01-25T12:29:25;100977.06;;;3.80;100.00
11830;BME280;5972;42.134;24.718;2023-01-25T12:32:07;100974.94;;;3.76;100.00
11830;BME280;5972;42.134;24.718;2023-01-25T12:34:45;100978.09;;;3.68;100.00
11830;BME280;5972;42.134;24.718;2023-01-25T12:37:27;100979.69;;;3.64;100.00
11830;BME280;5972;42.134;24.718;2023-01-25T12:40:10;100936.53;;;3.46;100.00
11830;BME280;5972;42.134;24.718;2023-01-25T12:42:58;100972.22;;;3.71;100.00
11830;BME280;5972;42.134;24.718;2023-01-25T12:45:35;100970.06;;;3.63;100.00
11830;BME280;5972;42.134;24.718;2023-01-25T12:48:22;100951.84;;;3.60;100.00
11830;BME280;5972;42.134;24.718;2023-01-25T12:51:18;100971.69;;;3.69;100.00
11830;BME280;5972;42.134;24.718;2023-01-25T12:54:07;100955.31;;;3.51;100.00
11830;BME280;5972;42.134;24.718;2023-01-25T12:56:57;100913.72;;;3.23;100.00
11830;BME280;5972;42.134;24.718;2023-01-25T12:59:42;100957.72;;;3.57;100.00
11830;BME280;5972;42.134;24.718;2023-01-25T13:02:48;100952.09;;;3.54;100.00
11830;BME280;5972;42.134;24.718;2023-01-25T13:05:40;100907.00;;;3.20;100.00
11830;BME280;5972;42.134;24.718;2023-01-25T13:08:36;100957.16;;;3.45;100.00
11830;BME280;5972;42.134;24.718;2023-01-25T13:11:21;100911.59;;;3.35;100.00
11830;BME280;5972;42.134;24.718;2023-01-25T13:17:29;100953.97;;;3.53;100.00
11830;BME280;5972;42.134;24.718;2023-01-25T13:23:35;100953.75;;;3.70;100.00
11830;BME280;5972;42.134;24.718;2023-01-25T13:26:42;100947.84;;;3.68;100.00
11830;BME280;5972;42.134;24.718;2023-01-25T13:29:43;100947.03;;;3.62;100.00
11830;BME280;5972;42.134;24.718;2023-01-25T13:32:13;100938.75;;;3.69;100.00
11830;BME280;5972;42.134;24.718;2023-01-25T13:35:01;100923.22;;;3.56;100.00